sensor_id;sensor_type;location;lat;lon;timestamp;temperature;humidity
11744;DHT22;5929;51.906;7.674;2022-12-07T00:00:36;4.90;99.90
11744;DHT22;5929;51.906;7.674;2022-12-07T00:03:03;4.90;99.90
11744;DHT22;5929;51.906;7.674;2022-12-07T00:05:30;4.80;99.90
11744;DHT22;5929;51.906;7.674;2022-12-07T00:07:57;4.90;99.90
11744;DHT22;5929;51.906;7.674;2022-12-07T00:10:24;4.90;99.90
11744;DHT22;5929;51.906;7.674;2022-12-07T00:12:51;4.80;99.90
11744;DHT22;5929;51.906;7.674;2022-12-07T00:15:19;4.80;99.90
11744;DHT22;5929;51.906;7.674;2022-12-07T00:17:45;4.80;99.90
11744;DHT22;5929;51.906;7.674;2022-12-07T00:20:13;4.90;99.90
11744;DHT22;5929;51.906;7.674;2022-12-07T00:22:40;4.90;99.90
11744;DHT22;5929;51.906;7.674;2022-12-07T00:25:07;4.80;99.90
11744;DHT22;5929;51.906;7.674;2022-12-07T00:27:34;4.90;99.90
11744;DHT22;5929;51.906;7.674;2022-12-07T00:30:00;4.90;99.90
11744;DHT22;5929;51.906;7.674;2022-12-07T00:32:28;4.90;99.90
11744;DHT22;5929;51.906;7.674;2022-12-07T00:34:55;4.90;99.90
11744;DHT22;5929;51.906;7.674;2022-12-07T00:37:22;4.80;99.90
11744;DHT22;5929;51.906;7.674;2022-12-07T00:39:49;4.90;99.90
11744;DHT22;5929;51.906;7.674;2022-12-07T00:42:18;4.80;99.90
11744;DHT22;5929;51.906;7.674;2022-12-07T00:44:45;4.80;99.90
11744;DHT22;5929;51.906;7.674;2022-12-07T00:47:11;4.80;99.90
11744;DHT22;5929;51.906;7.674;2022-12-07T00:49:39;4.80;99.90
11744;DHT22;5929;51.906;7.674;2022-12-07T00:52:06;4.70;99.90
11744;DHT22;5929;51.906;7.674;2022-12-07T00:54:33;4.70;99.90
11744;DHT22;5929;51.906;7.674;2022-12-07T00:57:00;4.70;99.90
11744;DHT22;5929;51.906;7.674;2022-12-07T00:59:27;4.70;99.90
11744;DHT22;5929;51.906;7.674;2022-12-07T01:01:53;4.70;99.90
11744;DHT22;5929;51.906;7.674;2022-12-07T01:04:20;4.70;99.90
11744;DHT22;5929;51.906;7.674;2022-12-07T01:06:51;4.70;99.90
11744;DHT22;5929;51.906;7.674;2022-12-07T01:09:17;4.70;99.90
11744;DHT22;5929;51.906;7.674;2022-12-07T01:11:44;4.60;99.90
11744;DHT22;5929;51.906;7.674;2022-12-07T01:14:11;4.60;99.90
11744;DHT22;5929;51.906;7.674;2022-12-07T01:16:38;4.60;99.90
11744;DHT22;5929;51.906;7.674;2022-12-07T01:19:05;4.60;99.90
11744;DHT22;5929;51.906;7.674;2022-12-07T01:21:34;4.60;99.90
11744;DHT22;5929;51.906;7.674;2022-12-07T01:24:05;4.60;99.90
11744;DHT22;5929;51.906;7.674;2022-12-07T01:26:33;4.50;99.90
11744;DHT22;5929;51.906;7.674;2022-12-07T01:29:00;4.60;99.90
11744;DHT22;5929;51.906;7.674;2022-12-07T01:31:27;4.50;99.90
11744;DHT22;5929;51.906;7.674;2022-12-07T01:33:56;4.50;99.90
11744;DHT22;5929;51.906;7.674;2022-12-07T01:36:25;4.50;99.90
11744;DHT22;5929;51.906;7.674;2022-12-07T01:38:56;4.50;99.90
11744;DHT22;5929;51.906;7.674;2022-12-07T01:41:25;4.50;99.90
11744;DHT22;5929;51.906;7.674;2022-12-07T01:44:14;4.60;99.90
11744;DHT22;5929;51.906;7.674;2022-12-07T01:46:43;4.50;99.90
11744;DHT22;5929;51.906;7.674;2022-12-07T01:49:16;4.50;99.90
11744;DHT22;5929;51.906;7.674;2022-12-07T01:51:44;4.50;99.90
11744;DHT22;5929;51.906;7.674;2022-12-07T01:54:13;4.50;99.90
11744;DHT22;5929;51.906;7.674;2022-12-07T01:56:48;4.50;99.90
11744;DHT22;5929;51.906;7.674;2022-12-07T01:59:18;4.40;99.90
11744;DHT22;5929;51.906;7.674;2022-12-07T02:01:46;4.40;99.90
11744;DHT22;5929;51.906;7.674;2022-12-07T02:04:13;4.30;99.90
11744;DHT22;5929;51.906;7.674;2022-12-07T02:06:41;4.30;99.90
11744;DHT22;5929;51.906;7.674;2022-12-07T02:09:09;4.20;99.90
11744;DHT22;5929;51.906;7.674;2022-12-07T02:11:38;4.20;99.90
11744;DHT22;5929;51.906;7.674;2022-12-07T02:14:08;4.20;99.90
11744;DHT22;5929;51.906;7.674;2022-12-07T02:16:42;4.10;99.90
11744;DHT22;5929;51.906;7.674;2022-12-07T02:19:39;4.10;99.90
11744;DHT22;5929;51.906;7.674;2022-12-07T02:22:18;4.10;99.90
11744;DHT22;5929;51.906;7.674;2022-12-07T02:24:53;4.10;99.90
11744;DHT22;5929;51.906;7.674;2022-12-07T02:27:38;4.00;99.90
11744;DHT22;5929;51.906;7.674;2022-12-07T02:30:12;4.00;99.90
11744;DHT22;5929;51.906;7.674;2022-12-07T02:32:46;3.90;99.90
11744;DHT22;5929;51.906;7.674;2022-12-07T02:35:18;3.90;99.90
11744;DHT22;5929;51.906;7.674;2022-12-07T02:37:57;3.90;99.90
11744;DHT22;5929;51.906;7.674;2022-12-07T02:40:29;3.80;99.90
11744;DHT22;5929;51.906;7.674;2022-12-07T02:43:02;3.80;99.90
11744;DHT22;5929;51.906;7.674;2022-12-07T02:45:35;3.80;99.90
11744;DHT22;5929;51.906;7.674;2022-12-07T02:48:03;3.80;99.90
11744;DHT22;5929;51.906;7.674;2022-12-07T02:50:31;3.80;99.90
11744;DHT22;5929;51.906;7.674;2022-12-07T02:52:58;3.80;99.90
11744;DHT22;5929;51.906;7.674;2022-12-07T02:55:29;3.70;99.90
11744;DHT22;5929;51.906;7.674;2022-12-07T02:58:10;3.70;99.90
11744;DHT22;5929;51.906;7.674;2022-12-07T03:00:48;3.70;99.90
11744;DHT22;5929;51.906;7.674;2022-12-07T03:03:17;3.70;99.90
11744;DHT22;5929;51.906;7.674;2022-12-07T03:05:54;3.60;99.90
11744;DHT22;5929;51.906;7.674;2022-12-07T03:08:33;3.60;99.90
11744;DHT22;5929;51.906;7.674;2022-12-07T03:11:06;3.60;99.90
11744;DHT22;5929;51.906;7.674;2022-12-07T03:13:37;3.60;99.90
11744;DHT22;5929;51.906;7.674;2022-12-07T03:16:14;3.50;99.90
11744;DHT22;5929;51.906;7.674;2022-12-07T03:18:46;3.50;99.90
11744;DHT22;5929;51.906;7.674;2022-12-07T03:21:16;3.50;99.90
11744;DHT22;5929;51.906;7.674;2022-12-07T03:23:48;3.50;99.90
11744;DHT22;5929;51.906;7.674;2022-12-07T03:26:17;3.40;99.90
11744;DHT22;5929;51.906;7.674;2022-12-07T03:28:50;3.40;99.90
11744;DHT22;5929;51.906;7.674;2022-12-07T03:31:22;3.40;99.90
11744;DHT22;5929;51.906;7.674;2022-12-07T03:33:53;3.40;99.90
11744;DHT22;5929;51.906;7.674;2022-12-07T03:36:25;3.40;99.90
11744;DHT22;5929;51.906;7.674;2022-12-07T03:38:56;3.40;99.90
11744;DHT22;5929;51.906;7.674;2022-12-07T03:41:27;3.40;99.90
11744;DHT22;5929;51.906;7.674;2022-12-07T03:43:55;3.30;99.90
11744;DHT22;5929;51.906;7.674;2022-12-07T03:46:30;3.40;99.90
11744;DHT22;5929;51.906;7.674;2022-12-07T03:49:07;3.30;99.90
11744;DHT22;5929;51.906;7.674;2022-12-07T03:51:40;3.40;99.90
11744;DHT22;5929;51.906;7.674;2022-12-07T03:54:13;3.40;99.90
11744;DHT22;5929;51.906;7.674;2022-12-07T03:56:42;3.40;99.90
11744;DHT22;5929;51.906;7.674;2022-12-07T03:59:11;3.30;99.90
11744;DHT22;5929;51.906;7.674;2022-12-07T04:01:41;3.30;99.90
11744;DHT22;5929;51.906;7.674;2022-12-07T04:04:08;3.30;99.90
11744;DHT22;5929;51.906;7.674;2022-12-07T04:06:35;3.30;99.90
11744;DHT22;5929;51.906;7.674;2022-12-07T04:09:02;3.30;99.90
11744;DHT22;5929;51.906;7.674;2022-12-07T04:11:29;3.40;99.90
11744;DHT22;5929;51.906;7.674;2022-12-07T04:13:56;3.40;99.90
11744;DHT22;5929;51.906;7.674;2022-12-07T04:16:41;3.40;99.90
11744;DHT22;5929;51.906;7.674;2022-12-07T04:19:08;3.50;99.90
11744;DHT22;5929;51.906;7.674;2022-12-07T04:21:35;3.40;99.90
11744;DHT22;5929;51.906;7.674;2022-12-07T04:24:02;3.50;99.90
11744;DHT22;5929;51.906;7.674;2022-12-07T04:26:29;3.50;99.90
11744;DHT22;5929;51.906;7.674;2022-12-07T04:28:56;3.50;99.90
11744;DHT22;5929;51.906;7.674;2022-12-07T04:31:23;3.50;99.90
11744;DHT22;5929;51.906;7.674;2022-12-07T04:33:51;3.50;99.90
11744;DHT22;5929;51.906;7.674;2022-12-07T04:36:18;3.40;99.90
11744;DHT22;5929;51.906;7.674;2022-12-07T04:38:45;3.40;99.90
11744;DHT22;5929;51.906;7.674;2022-12-07T04:41:12;3.40;99.90
11744;DHT22;5929;51.906;7.674;2022-12-07T04:43:39;3.30;99.90
11744;DHT22;5929;51.906;7.674;2022-12-07T04:46:05;3.30;99.90
11744;DHT22;5929;51.906;7.674;2022-12-07T04:48:32;3.30;99.90
11744;DHT22;5929;51.906;7.674;2022-12-07T04:51:02;3.30;99.90
11744;DHT22;5929;51.906;7.674;2022-12-07T04:53:29;3.30;99.90
11744;DHT22;5929;51.906;7.674;2022-12-07T04:55:56;3.30;99.90
11744;DHT22;5929;51.906;7.674;2022-12-07T04:58:23;3.30;99.90
11744;DHT22;5929;51.906;7.674;2022-12-07T05:00:53;3.30;99.90
11744;DHT22;5929;51.906;7.674;2022-12-07T05:03:20;3.30;99.90
11744;DHT22;5929;51.906;7.674;2022-12-07T05:05:47;3.20;99.90
11744;DHT22;5929;51.906;7.674;2022-12-07T05:08:15;3.20;99.90
11744;DHT22;5929;51.906;7.674;2022-12-07T05:10:42;3.20;99.90
11744;DHT22;5929;51.906;7.674;2022-12-07T05:13:09;3.10;99.90
11744;DHT22;5929;51.906;7.674;2022-12-07T05:15:36;3.10;99.90
11744;DHT22;5929;51.906;7.674;2022-12-07T05:18:05;3.10;99.90
11744;DHT22;5929;51.906;7.674;2022-12-07T05:20:32;3.10;99.90
11744;DHT22;5929;51.906;7.674;2022-12-07T05:22:59;3.10;99.90
11744;DHT22;5929;51.906;7.674;2022-12-07T05:25:27;3.10;99.90
11744;DHT22;5929;51.906;7.674;2022-12-07T05:27:55;3.10;99.90
11744;DHT22;5929;51.906;7.674;2022-12-07T05:30:22;3.10;99.90
11744;DHT22;5929;51.906;7.674;2022-12-07T05:32:48;3.10;99.90
11744;DHT22;5929;51.906;7.674;2022-12-07T05:35:16;3.10;99.90
11744;DHT22;5929;51.906;7.674;2022-12-07T05:37:43;3.10;99.90
11744;DHT22;5929;51.906;7.674;2022-12-07T05:40:11;3.10;99.90
11744;DHT22;5929;51.906;7.674;2022-12-07T05:42:39;3.10;99.90
11744;DHT22;5929;51.906;7.674;2022-12-07T05:45:07;3.10;99.90
11744;DHT22;5929;51.906;7.674;2022-12-07T05:47:34;3.10;99.90
11744;DHT22;5929;51.906;7.674;2022-12-07T05:50:04;3.20;99.90
11744;DHT22;5929;51.906;7.674;2022-12-07T05:52:32;3.20;99.90
11744;DHT22;5929;51.906;7.674;2022-12-07T05:54:59;3.20;99.90
11744;DHT22;5929;51.906;7.674;2022-12-07T05:57:25;3.20;99.90
11744;DHT22;5929;51.906;7.674;2022-12-07T05:59:54;3.20;99.90
11744;DHT22;5929;51.906;7.674;2022-12-07T06:02:19;3.20;99.90
11744;DHT22;5929;51.906;7.674;2022-12-07T06:04:46;3.10;99.90
11744;DHT22;5929;51.906;7.674;2022-12-07T06:07:16;3.10;99.90
11744;DHT22;5929;51.906;7.674;2022-12-07T06:09:43;3.10;99.90
11744;DHT22;5929;51.906;7.674;2022-12-07T06:12:11;3.10;99.90
11744;DHT22;5929;51.906;7.674;2022-12-07T06:14:58;3.10;99.90
11744;DHT22;5929;51.906;7.674;2022-12-07T06:17:24;3.10;99.90
11744;DHT22;5929;51.906;7.674;2022-12-07T06:19:54;3.10;99.90
11744;DHT22;5929;51.906;7.674;2022-12-07T06:22:20;3.10;99.90
11744;DHT22;5929;51.906;7.674;2022-12-07T06:24:47;3.10;99.90
11744;DHT22;5929;51.906;7.674;2022-12-07T06:27:14;3.10;99.90
11744;DHT22;5929;51.906;7.674;2022-12-07T06:29:41;3.10;99.90
11744;DHT22;5929;51.906;7.674;2022-12-07T06:32:09;3.00;99.90
11744;DHT22;5929;51.906;7.674;2022-12-07T06:34:36;3.00;99.90
11744;DHT22;5929;51.906;7.674;2022-12-07T06:37:03;3.00;99.90
11744;DHT22;5929;51.906;7.674;2022-12-07T06:39:30;3.00;99.90
11744;DHT22;5929;51.906;7.674;2022-12-07T06:41:57;3.00;99.90
11744;DHT22;5929;51.906;7.674;2022-12-07T06:44:25;3.00;99.90
11744;DHT22;5929;51.906;7.674;2022-12-07T06:46:52;3.00;99.90
11744;DHT22;5929;51.906;7.674;2022-12-07T06:49:20;2.90;99.90
11744;DHT22;5929;51.906;7.674;2022-12-07T06:51:49;2.90;99.90
11744;DHT22;5929;51.906;7.674;2022-12-07T06:54:16;2.80;99.90
11744;DHT22;5929;51.906;7.674;2022-12-07T06:56:43;2.80;99.90
11744;DHT22;5929;51.906;7.674;2022-12-07T06:59:10;2.80;99.90
11744;DHT22;5929;51.906;7.674;2022-12-07T07:01:37;2.70;99.90
11744;DHT22;5929;51.906;7.674;2022-12-07T07:04:04;2.70;99.90
11744;DHT22;5929;51.906;7.674;2022-12-07T07:06:32;2.70;99.90
11744;DHT22;5929;51.906;7.674;2022-12-07T07:08:59;2.70;99.90
11744;DHT22;5929;51.906;7.674;2022-12-07T07:11:26;2.60;99.90
11744;DHT22;5929;51.906;7.674;2022-12-07T07:13:53;2.60;99.90
11744;DHT22;5929;51.906;7.674;2022-12-07T07:16:22;2.60;99.90
11744;DHT22;5929;51.906;7.674;2022-12-07T07:18:49;2.60;99.90
11744;DHT22;5929;51.906;7.674;2022-12-07T07:21:16;2.60;99.90
11744;DHT22;5929;51.906;7.674;2022-12-07T07:23:44;2.50;99.90
11744;DHT22;5929;51.906;7.674;2022-12-07T07:26:11;2.50;99.90
11744;DHT22;5929;51.906;7.674;2022-12-07T07:28:38;2.50;99.90
11744;DHT22;5929;51.906;7.674;2022-12-07T07:31:05;2.50;99.90
11744;DHT22;5929;51.906;7.674;2022-12-07T07:33:32;2.60;99.90
11744;DHT22;5929;51.906;7.674;2022-12-07T07:35:59;2.60;99.90
11744;DHT22;5929;51.906;7.674;2022-12-07T07:38:28;2.60;99.90
11744;DHT22;5929;51.906;7.674;2022-12-07T07:40:58;2.70;99.90
11744;DHT22;5929;51.906;7.674;2022-12-07T07:43:25;2.70;99.90
11744;DHT22;5929;51.906;7.674;2022-12-07T07:45:52;2.80;99.90
11744;DHT22;5929;51.906;7.674;2022-12-07T07:48:18;2.70;99.90
11744;DHT22;5929;51.906;7.674;2022-12-07T07:50:45;2.80;99.90
11744;DHT22;5929;51.906;7.674;2022-12-07T07:53:12;2.80;99.90
11744;DHT22;5929;51.906;7.674;2022-12-07T07:55:39;2.80;99.90
11744;DHT22;5929;51.906;7.674;2022-12-07T07:58:09;2.80;99.90
11744;DHT22;5929;51.906;7.674;2022-12-07T08:00:36;2.90;99.90
11744;DHT22;5929;51.906;7.674;2022-12-07T08:03:03;2.90;99.90
11744;DHT22;5929;51.906;7.674;2022-12-07T08:05:30;2.90;99.90
11744;DHT22;5929;51.906;7.674;2022-12-07T08:07:57;3.00;99.90
11744;DHT22;5929;51.906;7.674;2022-12-07T08:10:26;3.00;99.90
11744;DHT22;5929;51.906;7.674;2022-12-07T08:12:55;3.00;99.90
11744;DHT22;5929;51.906;7.674;2022-12-07T08:15:41;3.00;99.90
11744;DHT22;5929;51.906;7.674;2022-12-07T08:18:08;2.90;99.90
11744;DHT22;5929;51.906;7.674;2022-12-07T08:20:37;2.80;99.90
11744;DHT22;5929;51.906;7.674;2022-12-07T08:23:07;2.80;99.90
11744;DHT22;5929;51.906;7.674;2022-12-07T08:25:34;2.70;99.90
11744;DHT22;5929;51.906;7.674;2022-12-07T08:28:02;2.70;99.90
11744;DHT22;5929;51.906;7.674;2022-12-07T08:30:31;2.70;99.90
11744;DHT22;5929;51.906;7.674;2022-12-07T08:33:00;2.70;99.90
11744;DHT22;5929;51.906;7.674;2022-12-07T08:35:26;2.70;99.90
11744;DHT22;5929;51.906;7.674;2022-12-07T08:37:53;2.70;99.90
11744;DHT22;5929;51.906;7.674;2022-12-07T08:40:22;2.70;99.90
11744;DHT22;5929;51.906;7.674;2022-12-07T08:42:50;2.70;99.90
11744;DHT22;5929;51.906;7.674;2022-12-07T08:45:20;2.70;99.90
11744;DHT22;5929;51.906;7.674;2022-12-07T08:47:50;2.70;99.90
11744;DHT22;5929;51.906;7.674;2022-12-07T08:50:21;2.70;99.90
11744;DHT22;5929;51.906;7.674;2022-12-07T08:52:51;2.70;99.90
11744;DHT22;5929;51.906;7.674;2022-12-07T08:55:19;2.70;99.90
11744;DHT22;5929;51.906;7.674;2022-12-07T08:57:46;2.80;99.90
11744;DHT22;5929;51.906;7.674;2022-12-07T09:00:14;2.80;99.90
11744;DHT22;5929;51.906;7.674;2022-12-07T09:02:43;2.90;99.90
11744;DHT22;5929;51.906;7.674;2022-12-07T09:05:10;2.90;99.90
11744;DHT22;5929;51.906;7.674;2022-12-07T09:07:41;3.00;99.90
11744;DHT22;5929;51.906;7.674;2022-12-07T09:10:09;3.00;99.90
11744;DHT22;5929;51.906;7.674;2022-12-07T09:12:36;3.00;99.90
11744;DHT22;5929;51.906;7.674;2022-12-07T09:15:04;3.10;99.90
11744;DHT22;5929;51.906;7.674;2022-12-07T09:17:32;3.10;99.90
11744;DHT22;5929;51.906;7.674;2022-12-07T09:19:59;3.20;99.90
11744;DHT22;5929;51.906;7.674;2022-12-07T09:22:28;3.30;99.90
11744;DHT22;5929;51.906;7.674;2022-12-07T09:24:57;3.30;99.90
11744;DHT22;5929;51.906;7.674;2022-12-07T09:27:24;3.40;99.90
11744;DHT22;5929;51.906;7.674;2022-12-07T09:29:50;3.40;99.90
11744;DHT22;5929;51.906;7.674;2022-12-07T09:32:17;3.40;99.90
11744;DHT22;5929;51.906;7.674;2022-12-07T09:34:44;3.40;99.90
11744;DHT22;5929;51.906;7.674;2022-12-07T09:37:11;3.50;99.90
11744;DHT22;5929;51.906;7.674;2022-12-07T09:39:38;3.40;99.90
11744;DHT22;5929;51.906;7.674;2022-12-07T09:42:07;3.50;99.90
11744;DHT22;5929;51.906;7.674;2022-12-07T09:44:36;3.50;99.90
11744;DHT22;5929;51.906;7.674;2022-12-07T09:47:03;3.50;99.90
11744;DHT22;5929;51.906;7.674;2022-12-07T09:49:32;3.60;99.90
11744;DHT22;5929;51.906;7.674;2022-12-07T09:52:01;3.60;99.90
11744;DHT22;5929;51.906;7.674;2022-12-07T09:54:29;3.70;99.90
11744;DHT22;5929;51.906;7.674;2022-12-07T09:56:57;3.80;99.90
11744;DHT22;5929;51.906;7.674;2022-12-07T09:59:26;3.80;99.90
11744;DHT22;5929;51.906;7.674;2022-12-07T10:01:53;3.80;99.90
11744;DHT22;5929;51.906;7.674;2022-12-07T10:04:24;3.80;99.90
11744;DHT22;5929;51.906;7.674;2022-12-07T10:06:52;3.80;99.90
11744;DHT22;5929;51.906;7.674;2022-12-07T10:09:20;3.80;99.90
11744;DHT22;5929;51.906;7.674;2022-12-07T10:12:01;3.90;99.90
11744;DHT22;5929;51.906;7.674;2022-12-07T10:14:30;3.90;99.90
11744;DHT22;5929;51.906;7.674;2022-12-07T10:16:58;4.00;99.90
11744;DHT22;5929;51.906;7.674;2022-12-07T10:19:27;4.10;99.90
11744;DHT22;5929;51.906;7.674;2022-12-07T10:22:09;4.10;99.90
11744;DHT22;5929;51.906;7.674;2022-12-07T10:24:36;4.10;99.90
11744;DHT22;5929;51.906;7.674;2022-12-07T10:27:05;4.20;99.90
11744;DHT22;5929;51.906;7.674;2022-12-07T10:29:36;4.20;99.90
11744;DHT22;5929;51.906;7.674;2022-12-07T10:32:05;4.20;99.90
11744;DHT22;5929;51.906;7.674;2022-12-07T10:34:34;4.30;99.90
11744;DHT22;5929;51.906;7.674;2022-12-07T16:17:14;4.80;99.90
11744;DHT22;5929;51.906;7.674;2022-12-07T16:19:41;4.90;99.90
11744;DHT22;5929;51.906;7.674;2022-12-07T16:22:08;4.90;99.90
11744;DHT22;5929;51.906;7.674;2022-12-07T16:24:35;4.90;99.90
11744;DHT22;5929;51.906;7.674;2022-12-07T16:27:01;4.90;99.90
11744;DHT22;5929;51.906;7.674;2022-12-07T16:29:28;4.90;99.90
11744;DHT22;5929;51.906;7.674;2022-12-07T16:31:55;4.90;99.90
11744;DHT22;5929;51.906;7.674;2022-12-07T16:34:23;4.90;99.90
11744;DHT22;5929;51.906;7.674;2022-12-07T16:36:50;4.90;99.90
11744;DHT22;5929;51.906;7.674;2022-12-07T16:39:17;4.80;99.90
11744;DHT22;5929;51.906;7.674;2022-12-07T16:41:44;4.80;99.90
11744;DHT22;5929;51.906;7.674;2022-12-07T16:44:12;4.80;99.90
11744;DHT22;5929;51.906;7.674;2022-12-07T16:46:39;4.80;99.90
11744;DHT22;5929;51.906;7.674;2022-12-07T16:49:06;4.80;99.90
11744;DHT22;5929;51.906;7.674;2022-12-07T16:51:34;4.80;99.90
11744;DHT22;5929;51.906;7.674;2022-12-07T16:54:02;4.80;99.90
11744;DHT22;5929;51.906;7.674;2022-12-07T16:56:29;4.80;99.90
11744;DHT22;5929;51.906;7.674;2022-12-07T16:58:57;4.80;99.90
11744;DHT22;5929;51.906;7.674;2022-12-07T17:01:24;4.80;99.90
11744;DHT22;5929;51.906;7.674;2022-12-07T17:03:53;4.80;99.90
11744;DHT22;5929;51.906;7.674;2022-12-07T17:06:23;4.80;99.90
11744;DHT22;5929;51.906;7.674;2022-12-07T17:08:51;4.70;99.90
11744;DHT22;5929;51.906;7.674;2022-12-07T17:11:20;4.70;99.90
11744;DHT22;5929;51.906;7.674;2022-12-07T17:13:47;4.70;99.90
11744;DHT22;5929;51.906;7.674;2022-12-07T17:16:32;4.70;99.90
11744;DHT22;5929;51.906;7.674;2022-12-07T17:18:59;4.70;99.90
11744;DHT22;5929;51.906;7.674;2022-12-07T17:21:26;4.60;99.90
11744;DHT22;5929;51.906;7.674;2022-12-07T17:23:54;4.60;99.90
11744;DHT22;5929;51.906;7.674;2022-12-07T17:26:24;4.60;99.90
11744;DHT22;5929;51.906;7.674;2022-12-07T17:28:51;4.70;99.90
11744;DHT22;5929;51.906;7.674;2022-12-07T17:31:19;4.60;99.90
11744;DHT22;5929;51.906;7.674;2022-12-07T17:33:47;4.60;99.90
11744;DHT22;5929;51.906;7.674;2022-12-07T17:36:19;4.60;99.90
11744;DHT22;5929;51.906;7.674;2022-12-07T17:38:47;4.60;99.90
11744;DHT22;5929;51.906;7.674;2022-12-07T17:41:17;4.60;99.90
11744;DHT22;5929;51.906;7.674;2022-12-07T17:44:06;4.60;99.90
11744;DHT22;5929;51.906;7.674;2022-12-07T17:46:33;4.50;99.90
11744;DHT22;5929;51.906;7.674;2022-12-07T17:49:00;4.50;99.90
11744;DHT22;5929;51.906;7.674;2022-12-07T17:51:27;4.50;99.90
11744;DHT22;5929;51.906;7.674;2022-12-07T17:54:12;4.50;99.90
11744;DHT22;5929;51.906;7.674;2022-12-07T17:56:41;4.50;99.90
11744;DHT22;5929;51.906;7.674;2022-12-07T17:59:08;4.50;99.90
11744;DHT22;5929;51.906;7.674;2022-12-07T18:01:35;4.50;99.90
11744;DHT22;5929;51.906;7.674;2022-12-07T18:04:02;4.50;99.90
11744;DHT22;5929;51.906;7.674;2022-12-07T18:06:32;4.50;99.90
11744;DHT22;5929;51.906;7.674;2022-12-07T18:09:01;4.50;99.90
11744;DHT22;5929;51.906;7.674;2022-12-07T18:11:28;4.50;99.90
11744;DHT22;5929;51.906;7.674;2022-12-07T18:13:56;4.40;99.90
11744;DHT22;5929;51.906;7.674;2022-12-07T18:16:24;4.40;99.90
11744;DHT22;5929;51.906;7.674;2022-12-07T18:18:52;4.40;99.90
11744;DHT22;5929;51.906;7.674;2022-12-07T18:21:20;4.40;99.90
11744;DHT22;5929;51.906;7.674;2022-12-07T18:23:49;4.40;99.90
11744;DHT22;5929;51.906;7.674;2022-12-07T18:26:17;4.40;99.90
11744;DHT22;5929;51.906;7.674;2022-12-07T18:28:45;4.40;99.90
11744;DHT22;5929;51.906;7.674;2022-12-07T18:31:14;4.40;99.90
11744;DHT22;5929;51.906;7.674;2022-12-07T18:33:42;4.30;99.90
11744;DHT22;5929;51.906;7.674;2022-12-07T18:36:09;4.30;99.90
11744;DHT22;5929;51.906;7.674;2022-12-07T18:38:36;4.30;99.90
11744;DHT22;5929;51.906;7.674;2022-12-07T18:41:06;4.30;99.90
11744;DHT22;5929;51.906;7.674;2022-12-07T18:43:33;4.30;99.90
11744;DHT22;5929;51.906;7.674;2022-12-07T18:46:00;4.30;99.90
11744;DHT22;5929;51.906;7.674;2022-12-07T18:48:28;4.40;99.90
11744;DHT22;5929;51.906;7.674;2022-12-07T18:51:00;4.30;99.90
11744;DHT22;5929;51.906;7.674;2022-12-07T18:53:27;4.30;99.90
11744;DHT22;5929;51.906;7.674;2022-12-07T18:56:00;4.30;99.90
11744;DHT22;5929;51.906;7.674;2022-12-07T18:58:27;4.30;99.90
11744;DHT22;5929;51.906;7.674;2022-12-07T19:00:54;4.30;99.90
11744;DHT22;5929;51.906;7.674;2022-12-07T19:03:21;4.30;99.90
11744;DHT22;5929;51.906;7.674;2022-12-07T19:05:49;4.30;99.90
11744;DHT22;5929;51.906;7.674;2022-12-07T19:08:16;4.20;99.90
11744;DHT22;5929;51.906;7.674;2022-12-07T19:10:43;4.20;99.90
11744;DHT22;5929;51.906;7.674;2022-12-07T19:13:12;4.20;99.90
11744;DHT22;5929;51.906;7.674;2022-12-07T19:15:39;4.20;99.90
11744;DHT22;5929;51.906;7.674;2022-12-07T19:18:09;4.20;99.90
11744;DHT22;5929;51.906;7.674;2022-12-07T19:20:35;4.20;99.90
11744;DHT22;5929;51.906;7.674;2022-12-07T19:23:03;4.10;99.90
11744;DHT22;5929;51.906;7.674;2022-12-07T19:25:30;4.10;99.90
11744;DHT22;5929;51.906;7.674;2022-12-07T19:27:57;4.10;99.90
11744;DHT22;5929;51.906;7.674;2022-12-07T19:30:26;4.10;99.90
11744;DHT22;5929;51.906;7.674;2022-12-07T19:32:53;4.10;99.90
11744;DHT22;5929;51.906;7.674;2022-12-07T19:35:20;4.10;99.90
11744;DHT22;5929;51.906;7.674;2022-12-07T19:37:47;4.10;99.90
11744;DHT22;5929;51.906;7.674;2022-12-07T19:40:15;4.10;99.90
11744;DHT22;5929;51.906;7.674;2022-12-07T19:42:42;4.10;99.90
11744;DHT22;5929;51.906;7.674;2022-12-07T19:45:09;4.10;99.90
11744;DHT22;5929;51.906;7.674;2022-12-07T19:47:36;4.10;99.90
11744;DHT22;5929;51.906;7.674;2022-12-07T19:50:04;4.10;99.90
11744;DHT22;5929;51.906;7.674;2022-12-07T19:52:31;4.10;99.90
11744;DHT22;5929;51.906;7.674;2022-12-07T19:55:00;4.10;99.90
11744;DHT22;5929;51.906;7.674;2022-12-07T19:57:28;4.10;99.90
11744;DHT22;5929;51.906;7.674;2022-12-07T19:59:55;4.00;99.90
11744;DHT22;5929;51.906;7.674;2022-12-07T20:02:22;4.10;99.90
11744;DHT22;5929;51.906;7.674;2022-12-07T20:04:49;4.10;99.90
11744;DHT22;5929;51.906;7.674;2022-12-07T20:07:16;4.00;99.90
11744;DHT22;5929;51.906;7.674;2022-12-07T20:09:43;4.00;99.90
11744;DHT22;5929;51.906;7.674;2022-12-07T20:12:10;4.00;99.90
11744;DHT22;5929;51.906;7.674;2022-12-07T20:14:56;4.00;99.90
11744;DHT22;5929;51.906;7.674;2022-12-07T20:17:23;4.00;99.90
11744;DHT22;5929;51.906;7.674;2022-12-07T20:19:50;4.00;99.90
11744;DHT22;5929;51.906;7.674;2022-12-07T20:22:17;4.10;99.90
11744;DHT22;5929;51.906;7.674;2022-12-07T20:24:44;4.00;99.90
11744;DHT22;5929;51.906;7.674;2022-12-07T20:27:11;4.00;99.90
11744;DHT22;5929;51.906;7.674;2022-12-07T20:29:40;4.00;99.90
11744;DHT22;5929;51.906;7.674;2022-12-07T20:32:10;4.00;99.90
11744;DHT22;5929;51.906;7.674;2022-12-07T20:34:37;4.00;99.90
11744;DHT22;5929;51.906;7.674;2022-12-07T20:37:04;3.90;99.90
11744;DHT22;5929;51.906;7.674;2022-12-07T20:39:30;3.90;99.90
11744;DHT22;5929;51.906;7.674;2022-12-07T20:41:58;3.90;99.90
11744;DHT22;5929;51.906;7.674;2022-12-07T20:44:42;3.90;99.90
11744;DHT22;5929;51.906;7.674;2022-12-07T20:47:13;3.80;99.90
11744;DHT22;5929;51.906;7.674;2022-12-07T20:49:40;3.80;99.90
11744;DHT22;5929;51.906;7.674;2022-12-07T20:52:07;3.70;99.90
11744;DHT22;5929;51.906;7.674;2022-12-07T20:54:36;3.70;99.90
11744;DHT22;5929;51.906;7.674;2022-12-07T20:57:03;3.70;99.90
11744;DHT22;5929;51.906;7.674;2022-12-07T20:59:30;3.70;99.90
11744;DHT22;5929;51.906;7.674;2022-12-07T21:01:57;3.70;99.90
11744;DHT22;5929;51.906;7.674;2022-12-07T21:04:25;3.60;99.90
11744;DHT22;5929;51.906;7.674;2022-12-07T21:06:52;3.60;99.90
11744;DHT22;5929;51.906;7.674;2022-12-07T21:09:18;3.60;99.90
11744;DHT22;5929;51.906;7.674;2022-12-07T21:11:51;3.60;99.90
11744;DHT22;5929;51.906;7.674;2022-12-07T21:14:18;3.60;99.90
11744;DHT22;5929;51.906;7.674;2022-12-07T21:16:47;3.60;99.90
11744;DHT22;5929;51.906;7.674;2022-12-07T21:19:14;3.50;99.90
11744;DHT22;5929;51.906;7.674;2022-12-07T21:21:42;3.50;99.90
11744;DHT22;5929;51.906;7.674;2022-12-07T21:24:09;3.50;99.90
11744;DHT22;5929;51.906;7.674;2022-12-07T21:26:36;3.60;99.90
11744;DHT22;5929;51.906;7.674;2022-12-07T21:29:04;3.50;99.90
11744;DHT22;5929;51.906;7.674;2022-12-07T21:31:32;3.50;99.90
11744;DHT22;5929;51.906;7.674;2022-12-07T21:34:01;3.50;99.90
11744;DHT22;5929;51.906;7.674;2022-12-07T21:36:28;3.50;99.90
11744;DHT22;5929;51.906;7.674;2022-12-07T21:38:57;3.50;99.90
11744;DHT22;5929;51.906;7.674;2022-12-07T21:41:26;3.50;99.90
11744;DHT22;5929;51.906;7.674;2022-12-07T21:43:56;3.50;99.90
11744;DHT22;5929;51.906;7.674;2022-12-07T21:46:24;3.50;99.90
11744;DHT22;5929;51.906;7.674;2022-12-07T21:48:52;3.50;99.90
11744;DHT22;5929;51.906;7.674;2022-12-07T21:51:20;3.50;99.90